Time;durP1;ratioP1;P1;durP2;ratioP2;P2;SDS_P1;SDS_P2;PMS_P1;PMS_P2;Temp;Humidity;BMP_temperature;BMP_pressure;BME280_temperature;BME280_humidity;BME280_pressure;Samples;Min_cycle;Max_cycle;Signal;HPM_P1;HPM_P2
2021/03/21 05:00:19;;;;;;;1.50;1.40;;;6.10;99.90;;;;;;5909790;23;20217;31
2021/03/21 05:02:48;;;;;;;4.65;2.15;;;6.10;99.90;;;;;;4857878;29;20595;-72
2021/03/21 05:05:20;;;;;;;2.30;1.95;;;6.10;99.90;;;;;;4858465;29;20228;-70
2021/03/21 05:07:52;;;;;;;1.35;1.25;;;6.10;99.90;;;;;;4858005;29;20224;-70
2021/03/21 05:10:24;;;;;;;6.95;1.98;;;6.10;99.90;;;;;;4856860;29;20205;-70
2021/03/21 05:12:56;;;;;;;5.57;1.80;;;6.10;99.90;;;;;;4859989;29;20265;-72
2021/03/21 05:15:26;;;;;;;3.55;2.50;;;6.10;99.90;;;;;;4855834;29;20213;-72
2021/03/21 05:17:59;;;;;;;3.22;1.50;;;6.10;99.90;;;;;;4841845;29;20213;-72
2021/03/21 05:20:35;;;;;;;5.07;2.60;;;6.10;99.90;;;;;;4843556;29;20241;-72
2021/03/21 05:23:14;;;;;;;1.95;1.60;;;6.10;99.90;;;;;;4859253;29;20212;-71
2021/03/21 05:25:47;;;;;;;2.42;1.70;;;6.00;99.90;;;;;;4855024;29;20283;-71
2021/03/21 05:28:20;;;;;;;2.45;1.65;;;6.10;99.90;;;;;;4858493;29;20568;-71
2021/03/21 05:30:47;;;;;;;5.70;2.55;;;6.10;99.90;;;;;;4851397;29;20266;-72
2021/03/21 05:33:14;;;;;;;6.90;2.72;;;6.10;99.90;;;;;;4858485;29;20216;-72
2021/03/21 05:35:41;;;;;;;8.23;2.58;;;6.10;99.90;;;;;;4858428;29;20220;-72
2021/03/21 05:38:20;;;;;;;5.28;2.25;;;6.00;99.90;;;;;;4857126;29;20223;-72
2021/03/21 05:41:38;;;;;;;14.05;2.28;;;6.00;99.90;;;;;;4857915;29;20292;-72
2021/03/21 05:44:53;;;;;;;11.90;2.92;;;6.00;99.90;;;;;;4858742;29;20220;-70
2021/03/21 05:47:56;;;;;;;12.43;2.42;;;5.90;99.90;;;;;;4862506;29;20220;-72
2021/03/21 05:50:54;;;;;;;16.85;2.80;;;5.80;99.90;;;;;;4861999;29;20208;-71
2021/03/21 05:53:50;;;;;;;6.97;2.88;;;5.80;99.90;;;;;;4852202;29;20642;-72
2021/03/21 05:56:33;;;;;;;9.15;3.17;;;5.70;99.90;;;;;;4838458;29;20641;-73
2021/03/21 05:59:15;;;;;;;14.65;4.03;;;5.70;99.90;;;;;;4862601;29;20238;-74
2021/03/21 06:02:14;;;;;;;8.25;2.90;;;5.60;99.90;;;;;;4857066;29;20240;-73
2021/03/21 06:05:23;;;;;;;12.20;3.30;;;5.60;99.90;;;;;;4832389;29;20291;-74
2021/03/21 06:08:26;;;;;;;8.02;3.17;;;5.60;99.90;;;;;;4849323;29;20236;-74
2021/03/21 06:11:25;;;;;;;11.15;4.25;;;5.60;99.90;;;;;;4859621;29;20338;-74
2021/03/21 06:14:21;;;;;;;17.90;4.22;;;5.60;99.90;;;;;;4845322;29;20217;-71
2021/03/21 06:17:13;;;;;;;20.98;3.50;;;5.60;99.90;;;;;;4857518;29;20209;-73
2021/03/21 06:20:05;;;;;;;12.20;3.10;;;5.60;99.90;;;;;;4851148;29;20588;-72
2021/03/21 06:23:07;;;;;;;8.57;3.97;;;5.60;99.90;;;;;;4862486;29;20282;-72
2021/03/21 06:25:45;;;;;;;7.18;3.85;;;5.60;99.90;;;;;;4861536;29;20212;-72
2021/03/21 06:28:40;;;;;;;16.20;5.53;;;5.60;99.90;;;;;;4855023;29;20210;-73
2021/03/21 06:31:42;;;;;;;12.55;3.95;;;5.60;99.90;;;;;;4860774;29;20236;-73
2021/03/21 06:34:17;;;;;;;10.63;3.40;;;5.60;99.90;;;;;;4859800;29;20220;-73
2021/03/21 06:36:48;;;;;;;9.70;4.20;;;5.60;99.90;;;;;;4861874;29;20208;-73
2021/03/21 06:39:47;;;;;;;12.93;4.35;;;5.60;99.90;;;;;;4845151;29;20606;-72
2021/03/21 06:42:27;;;;;;;15.82;3.17;;;5.60;99.90;;;;;;4848373;29;20224;-70
2021/03/21 06:45:24;;;;;;;18.00;6.40;;;5.70;99.90;;;;;;4861936;29;20310;-72
2021/03/21 06:48:32;;;;;;;24.52;5.53;;;5.70;99.90;;;;;;4852552;29;20286;-72
2021/03/21 06:51:15;;;;;;;13.93;5.80;;;5.70;99.90;;;;;;4860124;29;20233;-71
2021/03/21 06:53:52;;;;;;;14.02;3.95;;;5.70;99.90;;;;;;4847882;29;20238;-71
2021/03/21 06:56:53;;;;;;;15.20;4.78;;;5.80;99.90;;;;;;4859146;29;20629;-71
2021/03/21 06:59:53;;;;;;;12.10;4.53;;;5.80;99.90;;;;;;4861991;29;20219;-71
2021/03/21 07:03:02;;;;;;;17.15;4.47;;;5.70;99.90;;;;;;4859742;29;20705;-69
2021/03/21 07:06:04;;;;;;;23.42;4.38;;;5.70;99.90;;;;;;4837052;29;20315;-70
2021/03/21 07:08:53;;;;;;;16.10;4.13;;;5.70;99.90;;;;;;4858496;29;20261;-70
2021/03/21 07:11:58;;;;;;;21.38;5.05;;;5.80;99.90;;;;;;4858576;29;20324;-70
2021/03/21 07:15:05;;;;;;;13.70;4.28;;;5.80;99.90;;;;;;4859293;29;20673;-70
2021/03/21 07:18:17;;;;;;;17.42;4.50;;;5.90;99.90;;;;;;4832563;29;20220;-70
2021/03/21 07:21:42;;;;;;;31.60;6.15;;;5.90;99.90;;;;;;4840358;29;20228;-70
2021/03/21 07:24:44;;;;;;;18.23;5.30;;;5.90;99.90;;;;;;4832155;29;20625;-70
2021/03/21 07:27:48;;;;;;;17.25;5.28;;;5.90;99.90;;;;;;4844026;29;20591;-71
2021/03/21 07:30:21;;;;;;;19.63;5.03;;;6.00;99.90;;;;;;4838722;29;20216;-70
2021/03/21 07:33:17;;;;;;;14.77;4.53;;;6.00;99.90;;;;;;4861448;29;20573;-70
2021/03/21 07:36:14;;;;;;;14.80;4.97;;;6.00;99.90;;;;;;4859455;29;20200;-73
2021/03/21 07:39:10;;;;;;;19.20;4.57;;;6.10;99.90;;;;;;4854745;29;20578;-73
2021/03/21 07:41:51;;;;;;;25.52;6.30;;;6.10;99.90;;;;;;4861497;29;20232;-74
2021/03/21 07:44:30;;;;;;;16.45;4.90;;;6.20;99.90;;;;;;4860238;29;20680;-72
2021/03/21 07:47:23;;;;;;;19.95;5.70;;;6.30;99.90;;;;;;4862085;29;20212;-72
2021/03/21 07:50:13;;;;;;;19.63;6.35;;;6.40;99.90;;;;;;4860297;29;20249;-71
2021/03/21 07:52:53;;;;;;;27.65;5.70;;;6.40;99.90;;;;;;4859398;29;20201;-70
2021/03/21 07:55:25;;;;;;;18.95;4.80;;;6.50;99.90;;;;;;4861170;29;20219;-70
2021/03/21 07:58:09;;;;;;;16.10;4.90;;;6.50;99.90;;;;;;4852646;29;20213;-72
2021/03/21 08:00:36;;;;;;;17.23;4.45;;;6.60;99.90;;;;;;4848285;29;20248;-72
2021/03/21 08:03:23;;;;;;;22.85;6.82;;;6.60;99.90;;;;;;4863099;29;20519;-71
2021/03/21 08:05:55;;;;;;;15.63;5.82;;;6.70;99.90;;;;;;4864219;29;20212;-72
2021/03/21 08:08:25;;;;;;;15.18;5.18;;;6.80;99.90;;;;;;4862457;29;20242;-72
2021/03/21 08:10:56;;;;;;;25.52;5.68;;;6.90;99.90;;;;;;4859595;29;20233;-73
2021/03/21 08:13:31;;;;;;;22.35;6.95;;;7.00;99.90;;;;;;4864223;29;20295;-73
2021/03/21 08:15:57;;;;;;;14.50;5.10;;;7.20;99.90;;;;;;4862428;29;20228;-73
2021/03/21 08:18:30;;;;;;;22.05;5.82;;;7.30;99.90;;;;;;4860845;29;20220;-70
2021/03/21 08:20:59;;;;;;;17.73;4.95;;;7.30;99.90;;;;;;4859643;29;20236;-71
2021/03/21 08:23:29;;;;;;;18.98;6.28;;;7.30;99.90;;;;;;4860823;29;20212;-71
2021/03/21 08:25:59;;;;;;;22.25;5.80;;;7.40;99.90;;;;;;4859856;29;20221;-71
2021/03/21 08:28:35;;;;;;;11.65;4.13;;;7.40;99.90;;;;;;4861627;29;20223;-74
2021/03/21 08:31:04;;;;;;;22.52;5.65;;;7.50;99.90;;;;;;4859771;29;20237;-72
2021/03/21 08:33:33;;;;;;;14.30;5.38;;;7.50;99.90;;;;;;4856975;29;20263;-72
2021/03/21 08:36:20;;;;;;;23.05;6.20;;;7.50;99.90;;;;;;4858768;29;20216;-72
2021/03/21 08:39:00;;;;;;;16.88;5.10;;;7.40;99.90;;;;;;4862267;29;20225;-72
2021/03/21 08:41:29;;;;;;;17.60;4.88;;;7.50;99.90;;;;;;4858499;29;20649;-72
2021/03/21 08:44:01;;;;;;;9.05;4.97;;;7.50;99.90;;;;;;4852325;29;20272;-72
2021/03/21 08:46:28;;;;;;;18.65;5.30;;;7.60;99.90;;;;;;4853667;29;20204;-75
2021/03/21 08:49:05;;;;;;;24.10;5.80;;;7.50;99.90;;;;;;4860692;29;20634;-73
2021/03/21 08:51:40;;;;;;;18.17;6.47;;;7.60;99.90;;;;;;4863676;29;20239;-72
2021/03/21 08:54:15;;;;;;;19.65;4.80;;;7.70;99.90;;;;;;4862414;29;20300;-73
2021/03/21 08:56:57;;;;;;;13.20;5.80;;;7.80;99.90;;;;;;4854535;29;20201;-73
2021/03/21 08:59:35;;;;;;;20.90;5.25;;;7.70;99.90;;;;;;4854265;29;20224;-74
2021/03/21 09:02:09;;;;;;;20.45;6.22;;;7.70;99.90;;;;;;4858657;29;20765;-72
2021/03/21 09:04:38;;;;;;;13.77;7.00;;;7.70;99.90;;;;;;4859477;29;20200;-73
2021/03/21 09:07:26;;;;;;;22.13;5.43;;;7.80;99.90;;;;;;4858278;29;20749;-73
2021/03/21 09:10:20;;;;;;;21.15;5.18;;;7.90;99.90;;;;;;4859219;29;20216;-72
2021/03/21 09:12:48;;;;;;;18.23;5.28;;;8.10;99.90;;;;;;4840140;29;20206;-73
2021/03/21 09:15:36;;;;;;;19.35;5.40;;;8.10;99.90;;;;;;4852269;29;20208;-73
2021/03/21 09:18:12;;;;;;;29.15;8.65;;;8.10;99.90;;;;;;4861714;29;20273;-73
2021/03/21 09:20:42;;;;;;;20.05;4.95;;;8.20;99.90;;;;;;4860655;29;20323;-73
2021/03/21 09:23:38;;;;;;;18.40;6.65;;;8.40;99.90;;;;;;4863242;29;20372;-73
2021/03/21 09:26:09;;;;;;;12.43;4.82;;;8.40;99.90;;;;;;4823461;29;20296;-72
2021/03/21 09:28:36;;;;;;;13.90;4.18;;;8.50;99.90;;;;;;4852781;29;20214;-72
2021/03/21 09:31:06;;;;;;;18.08;4.18;;;8.50;99.90;;;;;;4859016;29;20235;-72
2021/03/21 09:33:37;;;;;;;11.82;4.50;;;8.50;99.90;;;;;;4850166;29;20265;-72
2021/03/21 09:36:11;;;;;;;8.75;4.60;;;8.60;99.90;;;;;;4854125;29;20212;-72
2021/03/21 09:38:45;;;;;;;16.77;5.30;;;8.70;99.90;;;;;;4847822;29;20220;-72
2021/03/21 09:41:13;;;;;;;14.73;5.30;;;8.80;99.90;;;;;;4851737;29;20284;-71
2021/03/21 09:43:41;;;;;;;17.20;4.70;;;8.90;99.90;;;;;;4848895;29;20232;-73
2021/03/21 09:46:22;;;;;;;15.63;4.38;;;9.00;99.90;;;;;;4856960;29;20209;-70
2021/03/21 09:49:04;;;;;;;12.50;4.03;;;9.10;99.90;;;;;;4860246;29;20260;-70
2021/03/21 09:51:42;;;;;;;15.13;6.55;;;9.30;99.90;;;;;;4859410;29;20604;-70
2021/03/21 09:54:17;;;;;;;11.70;4.50;;;9.40;99.90;;;;;;4858711;29;20208;-72
2021/03/21 09:56:50;;;;;;;13.48;4.50;;;9.30;99.90;;;;;;4857144;29;20212;-72
2021/03/21 09:59:33;;;;;;;18.23;4.95;;;9.20;99.90;;;;;;4854040;29;20232;-71
2021/03/21 10:02:04;;;;;;;22.20;6.35;;;9.30;99.90;;;;;;4858905;29;20244;-69
2021/03/21 10:04:37;;;;;;;17.80;5.97;;;9.30;99.90;;;;;;4855131;29;20209;-69
2021/03/21 10:07:09;;;;;;;19.95;4.85;;;9.40;99.90;;;;;;4849447;29;20288;-69
2021/03/21 10:09:37;;;;;;;14.55;5.82;;;9.50;99.90;;;;;;4863114;29;20717;-69
2021/03/21 10:12:09;;;;;;;14.25;4.57;;;9.50;99.90;;;;;;4857036;29;20229;-68
2021/03/21 10:15:03;;;;;;;14.77;4.95;;;9.40;99.90;;;;;;4853053;29;20205;-69
2021/03/21 10:17:45;;;;;;;18.70;5.40;;;9.40;99.90;;;;;;4862179;29;20295;-68
2021/03/21 10:20:14;;;;;;;11.45;4.47;;;9.30;99.90;;;;;;4860936;29;20579;-68
2021/03/21 10:22:58;;;;;;;10.23;3.40;;;9.30;99.90;;;;;;4861903;29;20204;-69
2021/03/21 10:26:03;;;;;;;14.30;3.88;;;9.30;99.90;;;;;;4860414;29;20209;-69
2021/03/21 10:28:43;;;;;;;12.98;4.07;;;9.40;99.90;;;;;;4863966;29;20219;-68
2021/03/21 10:31:31;;;;;;;12.82;3.35;;;9.40;99.90;;;;;;4863233;29;20240;-69
2021/03/21 10:34:33;;;;;;;11.45;3.60;;;9.40;99.90;;;;;;4860346;29;20221;-70
2021/03/21 10:36:59;;;;;;;17.50;4.78;;;9.50;99.90;;;;;;4859917;29;20204;-69
2021/03/21 10:39:59;;;;;;;6.18;3.08;;;9.50;99.90;;;;;;4854953;29;20229;-69
2021/03/21 10:42:49;;;;;;;10.05;3.47;;;9.40;99.90;;;;;;4859352;29;20228;-70
2021/03/21 10:45:38;;;;;;;10.20;3.75;;;9.40;99.90;;;;;;4863106;29;20660;-69
2021/03/21 10:48:11;;;;;;;12.30;4.90;;;9.40;99.90;;;;;;4862198;29;20641;-69
2021/03/21 10:50:57;;;;;;;7.38;3.35;;;9.50;99.90;;;;;;4863346;29;20300;-69
2021/03/21 10:53:28;;;;;;;6.88;3.42;;;9.60;99.90;;;;;;4845175;29;20670;-69
2021/03/21 10:56:07;;;;;;;13.60;4.00;;;9.60;99.90;;;;;;4846723;29;20216;-69
2021/03/21 10:58:53;;;;;;;15.82;4.53;;;9.60;99.90;;;;;;4844575;29;20209;-69
2021/03/21 11:01:38;;;;;;;14.02;3.47;;;9.50;99.90;;;;;;4855708;29;20244;-69
2021/03/21 11:04:32;;;;;;;5.88;3.25;;;9.50;99.90;;;;;;4862406;29;20533;-69
2021/03/21 11:07:10;;;;;;;10.25;3.53;;;9.60;99.90;;;;;;4860327;29;20275;-69
2021/03/21 11:09:48;;;;;;;16.40;4.00;;;9.70;99.90;;;;;;4855951;29;20388;-69
2021/03/21 11:12:15;;;;;;;14.23;3.25;;;9.80;99.90;;;;;;4858135;29;20259;-68
2021/03/21 11:14:43;;;;;;;7.57;3.33;;;9.80;99.90;;;;;;4868161;29;20227;-69
2021/03/21 11:17:18;;;;;;;8.70;3.70;;;9.80;99.90;;;;;;4857033;29;20562;-70
2021/03/21 11:19:47;;;;;;;11.65;4.40;;;9.80;99.90;;;;;;4844816;29;20609;-69
2021/03/21 11:22:27;;;;;;;14.65;5.78;;;9.80;99.90;;;;;;4860176;29;20653;-69
2021/03/21 11:24:53;;;;;;;10.73;3.30;;;9.80;99.90;;;;;;4849247;29;20204;-69
2021/03/21 11:27:29;;;;;;;14.57;3.20;;;9.90;99.90;;;;;;4856552;29;20645;-69
2021/03/21 11:30:12;;;;;;;8.52;2.80;;;10.00;99.90;;;;;;4861269;29;20204;-68
2021/03/21 11:32:38;;;;;;;10.30;3.85;;;10.00;99.90;;;;;;4861294;29;20204;-69
2021/03/21 11:35:08;;;;;;;9.32;3.75;;;9.90;99.90;;;;;;4854420;29;20482;-69
2021/03/21 11:37:36;;;;;;;15.05;3.60;;;9.90;99.90;;;;;;4860750;29;20208;-69
2021/03/21 11:40:06;;;;;;;8.23;3.55;;;9.90;99.90;;;;;;4860657;29;20232;-70
2021/03/21 11:42:35;;;;;;;8.13;2.97;;;10.00;99.90;;;;;;4857994;29;20224;-71
2021/03/21 11:45:21;;;;;;;11.48;2.70;;;10.00;99.90;;;;;;4844407;29;20286;-70
2021/03/21 11:47:49;;;;;;;9.98;3.05;;;9.90;99.90;;;;;;4859639;29;20693;-69
2021/03/21 11:50:20;;;;;;;13.30;3.38;;;9.90;99.90;;;;;;4861021;29;20228;-70
2021/03/21 11:52:47;;;;;;;9.82;3.22;;;9.90;99.90;;;;;;4842677;29;20371;-70
2021/03/21 11:55:18;;;;;;;14.55;3.28;;;9.90;99.90;;;;;;4859191;29;20291;-70
2021/03/21 11:58:02;;;;;;;8.98;2.88;;;10.00;99.90;;;;;;4850121;29;20382;-71
2021/03/21 12:00:32;;;;;;;3.53;2.50;;;10.20;99.90;;;;;;4859149;29;20717;-73
2021/03/21 12:03:02;;;;;;;7.68;3.15;;;10.20;99.90;;;;;;4842024;29;20209;-71
2021/03/21 12:05:31;;;;;;;16.13;3.65;;;10.20;99.90;;;;;;4857453;29;20201;-70
2021/03/21 12:08:23;;;;;;;5.30;2.13;;;10.20;99.90;;;;;;4860475;29;20351;-68
2021/03/21 12:10:51;;;;;;;8.35;3.15;;;10.00;99.90;;;;;;4854567;29;20232;-68
2021/03/21 12:13:25;;;;;;;9.73;3.10;;;9.90;99.90;;;;;;4861257;29;20221;-68
2021/03/21 12:15:53;;;;;;;8.32;2.97;;;9.90;99.90;;;;;;4845300;29;20234;-69
2021/03/21 12:18:22;;;;;;;11.30;5.57;;;9.90;99.90;;;;;;4845743;29;20217;-70
2021/03/21 12:20:50;;;;;;;5.50;2.33;;;10.00;99.90;;;;;;4859905;29;20308;-69
2021/03/21 12:23:32;;;;;;;8.27;2.50;;;10.10;99.90;;;;;;4860182;29;20212;-69
2021/03/21 12:26:14;;;;;;;7.07;3.00;;;10.20;99.90;;;;;;4849180;29;20205;-69
2021/03/21 12:28:56;;;;;;;10.60;2.70;;;10.20;99.90;;;;;;4842108;29;20235;-69
2021/03/21 12:31:29;;;;;;;11.60;3.22;;;10.40;99.90;;;;;;4841641;29;20229;-69
2021/03/21 12:33:55;;;;;;;4.55;3.17;;;10.50;99.90;;;;;;4842032;29;20289;-69
2021/03/21 12:36:26;;;;;;;7.85;3.00;;;10.40;99.90;;;;;;4860560;29;20205;-69
2021/03/21 12:38:57;;;;;;;6.57;2.22;;;10.40;99.90;;;;;;4858397;29;20201;-69
2021/03/21 12:41:42;;;;;;;7.75;2.80;;;10.20;99.90;;;;;;4859911;29;20235;-69
2021/03/21 12:44:24;;;;;;;10.52;2.25;;;10.00;99.90;;;;;;4866431;29;20217;-68
2021/03/21 12:46:59;;;;;;;8.20;2.53;;;10.20;99.90;;;;;;4849697;29;20229;-68
2021/03/21 12:49:47;;;;;;;7.28;2.92;;;10.20;99.90;;;;;;4853278;29;20297;-68
2021/03/21 12:52:17;;;;;;;5.00;2.25;;;10.30;99.90;;;;;;4855375;29;20240;-69
2021/03/21 12:54:46;;;;;;;6.88;1.77;;;10.30;99.90;;;;;;4859740;29;20209;-69
2021/03/21 12:57:13;;;;;;;5.35;2.05;;;10.40;99.90;;;;;;4859824;29;20547;-69
2021/03/21 12:59:42;;;;;;;7.53;2.50;;;10.20;99.90;;;;;;4860682;29;20232;-69
2021/03/21 13:02:19;;;;;;;6.28;2.30;;;10.10;99.90;;;;;;4858311;29;20335;-70
2021/03/21 13:04:46;;;;;;;7.63;2.42;;;10.20;99.90;;;;;;4856662;29;20232;-69
2021/03/21 13:07:12;;;;;;;7.05;2.67;;;10.20;99.90;;;;;;4860920;29;20212;-69
2021/03/21 13:09:38;;;;;;;5.85;2.08;;;10.10;99.90;;;;;;4860762;29;20212;-69
2021/03/21 13:12:06;;;;;;;4.75;2.67;;;10.00;99.90;;;;;;4860215;29;20541;-69
2021/03/21 13:14:32;;;;;;;5.15;1.95;;;10.10;99.90;;;;;;4861502;29;20650;-70
2021/03/21 13:16:58;;;;;;;2.13;1.90;;;10.30;99.90;;;;;;4861145;29;20217;-70
2021/03/21 13:19:25;;;;;;;4.40;2.35;;;10.20;99.90;;;;;;4861025;29;20229;-70
2021/03/21 13:21:52;;;;;;;3.42;2.70;;;10.20;99.90;;;;;;4859479;29;20236;-69
2021/03/21 13:24:18;;;;;;;9.15;2.88;;;10.10;99.90;;;;;;4859197;29;20219;-69
2021/03/21 13:26:44;;;;;;;3.17;2.60;;;10.10;99.90;;;;;;4859584;29;20223;-69
2021/03/21 13:29:10;;;;;;;3.10;2.35;;;10.20;99.90;;;;;;4860223;29;20213;-69
2021/03/21 13:31:37;;;;;;;2.85;1.98;;;10.40;99.90;;;;;;4859526;29;20574;-69
2021/03/21 13:34:03;;;;;;;7.80;2.55;;;10.50;99.90;;;;;;4859508;29;20216;-69
2021/03/21 13:36:31;;;;;;;4.63;2.60;;;10.60;99.90;;;;;;4859774;29;20216;-69
2021/03/21 13:38:57;;;;;;;3.35;1.90;;;10.60;99.90;;;;;;4859662;29;20276;-69
2021/03/21 13:41:23;;;;;;;5.63;2.30;;;10.70;99.90;;;;;;4859507;29;20263;-69
2021/03/21 13:43:49;;;;;;;6.05;2.38;;;10.70;99.90;;;;;;4859486;29;20227;-69
2021/03/21 13:46:15;;;;;;;4.50;2.60;;;10.60;99.90;;;;;;4859088;29;20220;-69
2021/03/21 13:48:42;;;;;;;4.78;2.33;;;10.50;99.90;;;;;;4859834;29;20223;-69
2021/03/21 13:51:08;;;;;;;7.72;2.55;;;10.40;99.90;;;;;;4859671;29;20324;-69
2021/03/21 13:53:38;;;;;;;4.90;2.35;;;10.40;99.90;;;;;;4859352;29;20315;-69
2021/03/21 13:56:07;;;;;;;6.00;2.20;;;10.40;99.90;;;;;;4859391;29;20252;-67
2021/03/21 13:58:33;;;;;;;7.72;2.40;;;10.30;99.90;;;;;;4859775;29;20216;-67
2021/03/21 14:01:00;;;;;;;4.07;1.85;;;10.30;99.90;;;;;;4858852;29;20950;-67
2021/03/21 14:03:26;;;;;;;4.05;1.80;;;10.30;99.90;;;;;;4859375;29;20241;-67
2021/03/21 14:05:53;;;;;;;3.90;2.05;;;10.40;99.90;;;;;;4860227;29;20208;-67
2021/03/21 14:08:21;;;;;;;2.03;1.90;;;10.40;99.90;;;;;;4862832;29;20216;-68
2021/03/21 14:10:48;;;;;;;5.38;2.35;;;10.40;99.90;;;;;;4862527;29;20292;-67
2021/03/21 14:13:15;;;;;;;6.43;1.90;;;10.40;99.90;;;;;;4862707;29;20227;-68
2021/03/21 14:15:43;;;;;;;2.80;1.70;;;10.40;99.90;;;;;;4862222;29;20658;-68
2021/03/21 14:18:10;;;;;;;2.92;2.13;;;10.40;99.90;;;;;;4862935;29;20303;-67
2021/03/21 14:20:40;;;;;;;3.40;2.40;;;10.40;99.90;;;;;;4862143;29;20224;-68
2021/03/21 14:23:09;;;;;;;5.72;2.28;;;10.30;99.90;;;;;;4861195;29;20285;-69
2021/03/21 14:25:36;;;;;;;3.65;2.53;;;10.30;99.90;;;;;;4857819;29;20671;-67
2021/03/21 14:28:04;;;;;;;7.47;3.92;;;10.40;99.90;;;;;;4855415;29;20209;-69
2021/03/21 14:30:31;;;;;;;6.05;3.00;;;10.40;99.90;;;;;;4857230;29;20243;-68
2021/03/21 14:32:58;;;;;;;4.70;1.70;;;10.50;99.90;;;;;;4857272;29;20216;-68
2021/03/21 14:35:27;;;;;;;4.47;2.47;;;10.50;99.90;;;;;;4860023;29;20228;-68
2021/03/21 14:37:53;;;;;;;3.90;2.17;;;10.50;99.90;;;;;;4858114;29;20579;-68
2021/03/21 14:40:21;;;;;;;4.72;2.47;;;10.60;99.90;;;;;;4858564;29;20352;-68
2021/03/21 14:42:47;;;;;;;2.03;1.83;;;10.70;99.90;;;;;;4861617;29;20269;-69
2021/03/21 14:45:15;;;;;;;1.65;1.50;;;10.70;99.90;;;;;;4857113;29;20218;-68
2021/03/21 14:47:42;;;;;;;4.35;1.60;;;10.60;99.90;;;;;;4854066;29;20273;-68
2021/03/21 14:50:11;;;;;;;1.60;1.35;;;10.60;99.90;;;;;;4861189;29;20273;-67
2021/03/21 14:52:38;;;;;;;6.53;2.55;;;10.50;99.90;;;;;;4861300;29;20208;-69
2021/03/21 14:55:06;;;;;;;3.53;2.00;;;10.50;99.90;;;;;;4859492;29;20296;-68
2021/03/21 14:57:32;;;;;;;2.40;1.95;;;10.50;99.90;;;;;;4853862;29;20224;-68
2021/03/21 14:59:59;;;;;;;2.03;1.77;;;10.50;99.90;;;;;;4849202;29;20233;-68
2021/03/21 15:02:26;;;;;;;6.90;2.10;;;10.40;99.90;;;;;;4852730;29;20233;-68
2021/03/21 15:04:52;;;;;;;3.60;2.20;;;10.40;99.90;;;;;;4857823;29;20568;-68
2021/03/21 15:07:19;;;;;;;5.20;2.53;;;10.40;99.90;;;;;;4847975;29;20212;-68
2021/03/21 15:09:46;;;;;;;3.15;2.50;;;10.40;99.90;;;;;;4859716;29;20267;-69
2021/03/21 15:12:12;;;;;;;2.50;1.80;;;10.40;99.90;;;;;;4848877;29;20368;-69
2021/03/21 15:14:39;;;;;;;3.38;2.05;;;10.40;99.90;;;;;;4861411;29;20314;-69
2021/03/21 15:17:05;;;;;;;4.15;1.95;;;10.40;99.90;;;;;;4859941;29;20289;-68
2021/03/21 15:19:33;;;;;;;3.03;1.95;;;10.40;99.90;;;;;;4861144;29;20575;-68
2021/03/21 15:21:59;;;;;;;2.40;2.10;;;10.40;99.90;;;;;;4860909;29;20243;-68
2021/03/21 15:24:25;;;;;;;4.40;2.35;;;10.40;99.90;;;;;;4861176;29;20217;-68
2021/03/21 15:26:53;;;;;;;7.05;3.47;;;10.50;99.90;;;;;;4861133;29;20272;-68
2021/03/21 15:29:19;;;;;;;8.32;2.95;;;10.50;99.90;;;;;;4850082;29;20548;-68
2021/03/21 15:31:45;;;;;;;8.82;3.17;;;10.50;99.90;;;;;;4857719;29;20308;-68
2021/03/21 15:34:13;;;;;;;4.72;2.50;;;10.50;99.90;;;;;;4843388;29;20216;-68
2021/03/21 15:36:41;;;;;;;2.47;2.25;;;10.50;99.90;;;;;;4857250;29;20292;-68
2021/03/21 15:39:09;;;;;;;2.28;1.42;;;10.40;99.90;;;;;;4861381;29;20213;-68
2021/03/21 15:41:38;;;;;;;7.22;2.60;;;10.40;99.90;;;;;;4859870;29;20604;-68
2021/03/21 15:44:05;;;;;;;4.20;2.47;;;10.30;99.90;;;;;;4863432;29;20224;-68
2021/03/21 15:46:31;;;;;;;7.00;2.67;;;10.20;99.90;;;;;;4859084;29;20212;-68
2021/03/21 15:48:58;;;;;;;3.65;2.45;;;10.10;99.90;;;;;;4860284;29;20619;-68
2021/03/21 15:51:27;;;;;;;9.10;2.05;;;10.00;99.90;;;;;;4846080;29;20272;-68
2021/03/21 15:53:55;;;;;;;5.93;2.15;;;10.00;99.90;;;;;;4864534;29;20224;-69
2021/03/21 15:56:21;;;;;;;2.03;1.92;;;9.90;99.90;;;;;;4856208;29;20217;-69
2021/03/21 15:58:48;;;;;;;4.78;2.00;;;9.90;99.90;;;;;;4852957;29;20514;-68
2021/03/21 16:01:15;;;;;;;3.88;2.55;;;9.90;99.90;;;;;;4860129;29;20578;-68
2021/03/21 16:03:43;;;;;;;2.60;2.10;;;9.80;99.90;;;;;;4856477;29;20209;-68
2021/03/21 16:06:10;;;;;;;2.50;1.95;;;9.80;99.90;;;;;;4860642;29;20274;-68
2021/03/21 16:08:37;;;;;;;3.90;1.80;;;9.80;99.90;;;;;;4857183;29;20208;-69
2021/03/21 16:11:05;;;;;;;5.57;2.53;;;9.70;99.90;;;;;;4851271;29;20248;-68
2021/03/21 16:13:32;;;;;;;6.88;2.45;;;9.70;99.90;;;;;;4846807;29;20216;-68
2021/03/21 16:15:58;;;;;;;6.93;3.15;;;9.70;99.90;;;;;;4855171;29;20209;-68
2021/03/21 16:18:24;;;;;;;2.95;2.65;;;9.70;99.90;;;;;;4860154;29;20578;-69
2021/03/21 16:20:51;;;;;;;10.27;3.42;;;9.60;99.90;;;;;;4860073;29;20237;-69
2021/03/21 16:23:18;;;;;;;7.22;3.20;;;9.60;99.90;;;;;;4859264;29;20272;-68
2021/03/21 16:25:45;;;;;;;7.18;4.13;;;9.60;99.90;;;;;;4859574;29;20227;-68
2021/03/21 16:28:14;;;;;;;6.93;3.00;;;9.50;99.90;;;;;;4856813;29;20208;-68
2021/03/21 16:30:42;;;;;;;9.23;2.92;;;9.50;99.90;;;;;;4858768;29;20233;-68
2021/03/21 16:33:10;;;;;;;6.93;3.22;;;9.50;99.90;;;;;;4850188;29;20205;-70
2021/03/21 16:35:37;;;;;;;9.23;2.45;;;9.40;99.90;;;;;;4847458;29;20560;-70
2021/03/21 16:38:04;;;;;;;13.57;4.20;;;9.40;99.90;;;;;;4855841;29;20206;-71
2021/03/21 16:40:33;;;;;;;13.13;4.00;;;9.30;99.90;;;;;;4839411;29;20233;-70
2021/03/21 16:42:59;;;;;;;3.85;2.78;;;9.30;99.90;;;;;;4850345;29;20205;-71
2021/03/21 16:45:30;;;;;;;5.90;2.90;;;9.20;99.90;;;;;;4848503;29;20265;-70
2021/03/21 16:47:57;;;;;;;8.85;3.08;;;9.10;99.90;;;;;;4859998;29;20201;-70
2021/03/21 16:50:24;;;;;;;11.05;3.47;;;9.10;99.90;;;;;;4860711;29;20212;-70
2021/03/21 16:52:50;;;;;;;11.00;3.88;;;9.00;99.90;;;;;;4859156;29;20216;-69
2021/03/21 16:55:16;;;;;;;10.25;3.47;;;9.00;99.90;;;;;;4859139;29;20213;-70
2021/03/21 16:57:42;;;;;;;11.63;4.93;;;9.00;99.90;;;;;;4859904;29;20216;-70
2021/03/21 17:00:13;;;;;;;13.05;3.35;;;9.00;99.90;;;;;;4859154;29;20228;-70
2021/03/21 17:02:40;;;;;;;8.02;3.65;;;8.90;99.90;;;;;;4846814;29;20542;-72
2021/03/21 17:05:07;;;;;;;10.50;3.30;;;8.80;99.90;;;;;;4857008;29;20209;-71
2021/03/21 17:07:34;;;;;;;4.30;3.00;;;8.70;99.90;;;;;;4856582;29;20224;-73
2021/03/21 17:10:00;;;;;;;15.05;3.78;;;8.60;99.90;;;;;;4855321;29;20209;-71
2021/03/21 17:12:26;;;;;;;11.95;2.95;;;8.50;99.90;;;;;;4857622;29;20693;-71
2021/03/21 17:14:53;;;;;;;9.60;3.95;;;8.40;99.90;;;;;;4860343;29;20204;-73
2021/03/21 17:17:20;;;;;;;11.50;3.30;;;8.40;99.90;;;;;;4859057;29;20212;-72
2021/03/21 17:19:47;;;;;;;7.22;3.10;;;8.30;99.90;;;;;;4855936;29;20232;-72
2021/03/21 17:22:13;;;;;;;14.90;3.63;;;8.30;99.90;;;;;;4854016;29;20255;-70
2021/03/21 17:24:39;;;;;;;9.93;3.95;;;8.20;99.90;;;;;;4843897;29;20209;-72
2021/03/21 17:27:06;;;;;;;14.00;4.28;;;8.20;99.90;;;;;;4859000;29;20291;-73
2021/03/21 17:29:32;;;;;;;8.93;4.13;;;8.10;99.90;;;;;;4851100;29;20273;-72
2021/03/21 17:31:59;;;;;;;8.10;3.17;;;8.00;99.90;;;;;;4865508;29;20231;-72
2021/03/21 17:34:25;;;;;;;6.82;3.70;;;8.00;99.90;;;;;;4869884;29;20244;-71
2021/03/21 17:36:52;;;;;;;15.27;4.90;;;7.80;99.90;;;;;;4859745;29;20296;-71
2021/03/21 17:39:18;;;;;;;10.75;3.08;;;7.70;99.90;;;;;;4859249;29;20212;-70
2021/03/21 17:41:44;;;;;;;6.75;3.25;;;7.70;99.90;;;;;;4860749;29;20240;-71
2021/03/21 17:44:12;;;;;;;7.97;4.93;;;7.50;99.90;;;;;;4863029;29;20334;-71
2021/03/21 17:46:38;;;;;;;15.05;3.38;;;7.50;99.90;;;;;;4858909;29;20569;-71
2021/03/21 17:49:04;;;;;;;8.30;3.10;;;7.40;99.90;;;;;;4861404;29;20217;-71
2021/03/21 17:51:30;;;;;;;17.42;3.80;;;7.40;99.90;;;;;;4863153;29;20228;-71
2021/03/21 17:53:58;;;;;;;7.78;3.55;;;7.30;99.90;;;;;;4859789;29;20216;-70
2021/03/21 17:56:26;;;;;;;9.95;2.95;;;7.30;99.90;;;;;;4856832;29;20208;-71
2021/03/21 17:58:53;;;;;;;8.52;3.05;;;7.20;99.90;;;;;;4859855;29;20212;-71
2021/03/21 18:01:23;;;;;;;15.40;3.60;;;7.20;99.90;;;;;;4862143;29;20228;-71
2021/03/21 18:03:50;;;;;;;7.70;3.00;;;7.10;99.90;;;;;;4862807;29;20231;-69
2021/03/21 18:06:16;;;;;;;11.43;3.30;;;7.00;99.90;;;;;;4848757;29;20213;-70
2021/03/21 18:08:43;;;;;;;10.32;2.92;;;7.00;99.90;;;;;;4850566;29;20216;-71
2021/03/21 18:11:12;;;;;;;10.45;2.95;;;6.90;99.90;;;;;;4850513;29;20229;-71
2021/03/21 18:13:40;;;;;;;8.35;3.55;;;6.90;99.90;;;;;;4859465;29;20213;-71
2021/03/21 18:16:07;;;;;;;9.68;4.20;;;6.90;99.90;;;;;;4862065;29;20595;-70
2021/03/21 18:18:33;;;;;;;8.52;3.40;;;6.90;99.90;;;;;;4853574;29;20229;-70
2021/03/21 18:21:00;;;;;;;20.35;3.92;;;6.80;99.90;;;;;;4857847;29;20685;-71
2021/03/21 18:23:26;;;;;;;17.92;6.15;;;6.80;99.90;;;;;;4850835;29;20240;-71
2021/03/21 18:25:54;;;;;;;16.52;5.53;;;6.70;99.90;;;;;;4857065;29;20209;-71